createdAt,value
2019-05-05T00:00:06.457Z,1400
2019-05-05T00:01:07.239Z,1400
2019-05-05T00:02:07.986Z,1400
2019-05-05T00:03:08.782Z,1400
2019-05-05T00:04:09.572Z,1400
2019-05-05T00:05:10.327Z,1350
2019-05-05T00:06:11.121Z,1350
2019-05-05T00:07:11.880Z,1350
2019-05-05T00:08:12.707Z,1350
2019-05-05T00:09:14.878Z,1350
2019-05-05T00:10:15.621Z,1350
2019-05-05T00:11:16.422Z,1350
2019-05-05T00:12:17.191Z,1350
2019-05-05T00:13:17.970Z,1350
2019-05-05T00:14:18.763Z,1350
2019-05-05T00:15:19.523Z,1350
2019-05-05T00:16:20.290Z,1350
2019-05-05T00:17:21.029Z,1350
2019-05-05T00:18:21.833Z,1350
2019-05-05T00:19:33.314Z,1350
2019-05-05T00:20:36.580Z,1350
2019-05-05T00:21:37.355Z,1350
2019-05-05T00:22:38.096Z,1300
2019-05-05T00:23:38.931Z,1350
2019-05-05T00:24:39.749Z,1300
2019-05-05T00:25:40.508Z,1300
2019-05-05T00:26:41.285Z,1350
2019-05-05T00:27:42.027Z,1350
2019-05-05T00:28:44.963Z,1350
2019-05-05T00:29:45.814Z,1300
2019-05-05T00:30:46.532Z,1300
2019-05-05T00:31:47.264Z,1350
2019-05-05T00:32:48.029Z,1350
2019-05-05T00:33:48.821Z,1350
2019-05-05T00:34:49.644Z,1300
2019-05-05T00:35:50.372Z,1350
2019-05-05T00:36:51.065Z,1300
2019-05-05T00:37:51.818Z,1300
2019-05-05T00:38:52.592Z,1300
2019-05-05T00:39:55.812Z,1300
2019-05-05T00:40:56.539Z,1300
2019-05-05T00:41:57.235Z,1300
2019-05-05T00:42:57.972Z,1300
2019-05-05T00:43:58.749Z,1350
2019-05-05T00:44:59.544Z,1300
2019-05-05T00:46:00.279Z,1300
2019-05-05T00:47:01.011Z,1300
2019-05-05T00:48:01.708Z,1300
2019-05-05T00:49:02.497Z,1300
2019-05-05T00:50:05.435Z,1300
2019-05-05T00:51:06.138Z,1300
2019-05-05T00:52:06.914Z,1300
2019-05-05T00:53:07.648Z,1300
2019-05-05T00:54:08.430Z,1300
2019-05-05T00:55:09.220Z,1300
2019-05-05T00:56:09.951Z,1300
2019-05-05T00:57:10.730Z,1300
2019-05-05T00:58:11.464Z,1300
2019-05-05T00:59:12.249Z,1300
2019-05-05T01:00:15.331Z,1300
2019-05-05T01:01:16.101Z,1300
2019-05-05T01:02:16.915Z,1300
2019-05-05T01:03:17.648Z,1300
2019-05-05T01:04:18.377Z,1300
2019-05-05T01:05:19.128Z,1300
2019-05-05T01:06:19.903Z,1300
2019-05-05T01:07:20.701Z,1300
2019-05-05T01:08:21.426Z,1300
2019-05-05T01:09:22.254Z,1300
2019-05-05T01:10:25.014Z,1300
2019-05-05T01:11:25.754Z,1300
2019-05-05T01:12:26.545Z,1300
2019-05-05T01:13:27.247Z,1300
2019-05-05T01:14:27.972Z,1300
2019-05-05T01:15:28.719Z,1300
2019-05-05T01:16:29.462Z,1300
2019-05-05T01:17:30.276Z,1300
2019-05-05T01:18:31.037Z,1300
2019-05-05T01:19:31.859Z,1300
2019-05-05T01:20:34.539Z,1300
2019-05-05T01:21:35.281Z,1300
2019-05-05T01:22:36.074Z,1300
2019-05-05T01:23:36.811Z,1300
2019-05-05T01:24:37.566Z,1300
2019-05-05T01:25:38.332Z,1300
2019-05-05T01:26:39.071Z,1300
2019-05-05T01:27:39.830Z,1300
2019-05-05T01:28:40.580Z,1300
2019-05-05T01:29:41.375Z,1300
2019-05-05T01:30:42.150Z,1300
2019-05-05T01:31:45.444Z,1300
2019-05-05T01:32:46.233Z,1300
2019-05-05T01:33:47.019Z,1300
2019-05-05T01:34:47.851Z,1300
2019-05-05T01:35:48.661Z,1300
2019-05-05T01:36:49.418Z,1300
2019-05-05T01:37:50.196Z,1300
2019-05-05T01:38:50.943Z,1300
2019-05-05T01:39:51.769Z,1300
2019-05-05T01:40:54.985Z,1300
2019-05-05T01:41:55.734Z,1300
2019-05-05T01:42:56.544Z,1300
2019-05-05T01:43:57.264Z,1300
2019-05-05T01:44:58.016Z,1300
2019-05-05T01:45:58.818Z,1300
2019-05-05T01:46:59.539Z,1300
2019-05-05T01:48:00.330Z,1300
2019-05-05T01:49:01.066Z,1300
2019-05-05T01:50:20.790Z,1300
2019-05-05T01:51:22.315Z,1300
2019-05-05T01:52:25.194Z,1300
2019-05-05T01:53:26.244Z,1300
2019-05-05T01:54:27.015Z,1300
2019-05-05T01:55:27.829Z,1300
2019-05-05T01:56:28.567Z,1300
2019-05-05T01:57:29.336Z,1300
2019-05-05T01:58:30.134Z,1250
2019-05-05T01:59:30.861Z,1300
2019-05-05T02:00:31.714Z,1300
2019-05-05T02:01:32.449Z,1300
2019-05-05T02:02:34.476Z,1300
2019-05-05T02:03:35.303Z,1300
2019-05-05T02:04:36.042Z,1300
2019-05-05T02:05:36.824Z,1250
2019-05-05T02:06:37.587Z,1300
2019-05-05T02:07:38.325Z,1300
2019-05-05T02:08:39.142Z,1300
2019-05-05T02:09:39.903Z,1250
2019-05-05T02:10:40.771Z,1300
2019-05-05T02:11:41.529Z,1300
2019-05-05T02:12:42.269Z,1250
2019-05-05T02:13:45.324Z,1250
2019-05-05T02:14:46.066Z,1250
2019-05-05T02:15:46.889Z,1250
2019-05-05T02:16:47.624Z,1300
2019-05-05T02:17:48.393Z,1300
2019-05-05T02:18:49.187Z,1250
2019-05-05T02:19:49.902Z,1250
2019-05-05T02:20:50.695Z,1250
2019-05-05T02:21:51.394Z,1250
2019-05-05T02:22:52.115Z,1250
2019-05-05T02:23:55.029Z,1300
2019-05-05T02:24:55.737Z,1300
2019-05-05T02:25:56.553Z,1300
2019-05-05T02:26:57.273Z,1250
2019-05-05T02:27:57.988Z,1250
2019-05-05T02:28:58.743Z,1250
2019-05-05T02:29:59.445Z,1250
2019-05-05T02:31:00.262Z,1250
2019-05-05T02:32:01.021Z,1250
2019-05-05T02:33:01.783Z,1250
2019-05-05T02:34:05.640Z,1250
2019-05-05T02:35:06.815Z,1250
2019-05-05T02:36:07.624Z,1250
2019-05-05T02:37:08.371Z,1250
2019-05-05T02:38:09.110Z,1250
2019-05-05T02:39:09.888Z,1250
2019-05-05T02:40:10.664Z,1250
2019-05-05T02:41:11.484Z,1250
2019-05-05T02:42:14.879Z,1250
2019-05-05T02:43:15.661Z,1250
2019-05-05T02:44:16.474Z,1250
2019-05-05T02:45:17.263Z,1250
2019-05-05T02:46:18.127Z,1250
2019-05-05T02:47:18.925Z,1250
2019-05-05T02:48:19.704Z,1250
2019-05-05T02:49:20.474Z,1250
2019-05-05T02:50:21.252Z,1250
2019-05-05T02:51:26.132Z,1250
2019-05-05T02:52:26.865Z,1250
2019-05-05T02:53:27.635Z,1250
2019-05-05T02:54:28.367Z,1250
2019-05-05T02:55:34.194Z,1250
2019-05-05T02:56:35.575Z,1250
2019-05-05T02:57:36.311Z,1250
2019-05-05T02:58:37.059Z,1250
2019-05-05T02:59:37.764Z,1250
2019-05-05T03:00:38.537Z,1250
2019-05-05T03:01:39.341Z,1250
2019-05-05T03:02:40.140Z,1250
2019-05-05T03:03:40.963Z,1250
2019-05-05T03:04:41.724Z,1250
2019-05-05T03:05:43.639Z,1250
2019-05-05T03:06:44.402Z,1250
2019-05-05T03:07:45.148Z,1250
2019-05-05T03:08:45.961Z,1250
2019-05-05T03:09:46.667Z,1250
2019-05-05T03:10:47.451Z,1250
2019-05-05T03:11:48.266Z,1250
2019-05-05T03:12:48.997Z,1250
2019-05-05T03:13:49.794Z,1250
2019-05-05T03:14:50.529Z,1250
2019-05-05T03:15:51.290Z,1250
2019-05-05T03:16:54.269Z,1250
2019-05-05T03:17:55.027Z,1250
2019-05-05T03:18:55.859Z,1250
2019-05-05T03:19:56.630Z,1250
2019-05-05T03:21:07.248Z,1250
2019-05-05T03:22:08.341Z,1250
2019-05-05T03:23:09.076Z,1250
2019-05-05T03:24:09.811Z,1250
2019-05-05T03:25:10.541Z,1250
2019-05-05T03:26:11.304Z,1250
2019-05-05T03:27:14.495Z,1250
2019-05-05T03:28:15.249Z,1250
2019-05-05T03:29:16.090Z,1250
2019-05-05T03:30:16.825Z,1250
2019-05-05T03:31:17.613Z,1250
2019-05-05T03:32:18.427Z,1250
2019-05-05T03:33:19.173Z,1250
2019-05-05T03:34:19.972Z,1250
2019-05-05T03:35:20.716Z,1250
2019-05-05T03:36:21.523Z,1250
2019-05-05T03:37:22.332Z,1250
2019-05-05T03:38:25.017Z,1250
2019-05-05T03:39:25.835Z,1250
2019-05-05T03:40:26.568Z,1250
2019-05-05T03:41:27.330Z,1250
2019-05-05T03:42:28.111Z,1250
2019-05-05T03:43:28.805Z,1250
2019-05-05T03:44:29.600Z,1250
2019-05-05T03:45:30.373Z,1250
2019-05-05T03:46:31.102Z,1250
2019-05-05T03:47:33.934Z,1250
2019-05-05T03:48:34.910Z,1250
2019-05-05T03:49:35.702Z,1250
2019-05-05T03:50:36.435Z,1250
2019-05-05T03:51:37.205Z,1250
2019-05-05T03:52:38.004Z,1250
2019-05-05T03:53:38.785Z,1250
2019-05-05T03:54:39.604Z,1250
2019-05-05T03:55:40.371Z,1250
2019-05-05T03:56:41.131Z,1250
2019-05-05T03:57:41.942Z,1250
2019-05-05T03:58:43.906Z,1250
2019-05-05T03:59:44.737Z,1250
2019-05-05T04:00:45.473Z,1250
2019-05-05T04:01:46.214Z,1250
2019-05-05T04:02:47.071Z,1250
2019-05-05T04:03:47.804Z,1250
2019-05-05T04:04:48.608Z,1250
2019-05-05T04:05:49.357Z,1250
2019-05-05T04:06:50.059Z,1250
2019-05-05T04:07:50.879Z,1250
2019-05-05T04:08:53.624Z,1250
2019-05-05T04:09:54.547Z,1250
2019-05-05T04:10:55.246Z,1250
2019-05-05T04:11:55.945Z,1250
2019-05-05T04:12:56.695Z,1250
2019-05-05T04:13:57.427Z,1250
2019-05-05T04:14:58.162Z,1250
2019-05-05T04:15:58.897Z,1250
2019-05-05T04:16:59.645Z,1250
2019-05-05T04:18:00.462Z,1250
2019-05-05T04:19:03.042Z,1250
2019-05-05T04:20:04.392Z,1250
2019-05-05T04:21:05.132Z,1250
2019-05-05T04:22:05.834Z,1250
2019-05-05T04:23:06.645Z,1250
2019-05-05T04:24:07.378Z,1250
2019-05-05T04:25:08.202Z,1250
2019-05-05T04:26:08.923Z,1250
2019-05-05T04:27:09.656Z,1250
2019-05-05T04:28:10.436Z,1250
2019-05-05T04:29:11.172Z,1250
2019-05-05T04:30:14.434Z,1250
2019-05-05T04:31:15.207Z,1250
2019-05-05T04:32:15.936Z,1250
2019-05-05T04:33:16.753Z,1250
2019-05-05T04:34:17.519Z,1250
2019-05-05T04:35:18.311Z,1250
2019-05-05T04:36:19.055Z,1250
2019-05-05T04:37:19.797Z,1250
2019-05-05T04:38:20.618Z,1250
2019-05-05T04:39:23.128Z,1250
2019-05-05T04:40:24.507Z,1250
2019-05-05T04:41:25.240Z,1250
2019-05-05T04:42:25.989Z,1250
2019-05-05T04:43:26.820Z,1250
2019-05-05T04:44:27.651Z,1250
2019-05-05T04:45:28.445Z,1250
2019-05-05T04:46:29.198Z,1250
2019-05-05T04:47:29.951Z,1250
2019-05-05T04:48:30.796Z,1250
2019-05-05T04:49:31.613Z,1250
2019-05-05T04:50:34.842Z,1250
2019-05-05T04:51:50.176Z,1250
2019-05-05T04:52:51.204Z,1200
2019-05-05T04:53:53.799Z,1200
2019-05-05T04:54:55.957Z,1250
2019-05-05T04:55:56.715Z,1200
2019-05-05T04:56:57.479Z,1200
2019-05-05T04:57:58.255Z,1250
2019-05-05T04:58:59.152Z,1200
2019-05-05T04:59:59.968Z,1250
2019-05-05T05:01:00.755Z,1250
2019-05-05T05:02:01.504Z,1200
2019-05-05T05:03:04.761Z,1250
2019-05-05T05:04:05.612Z,1250
2019-05-05T05:05:06.440Z,1250
2019-05-05T05:06:07.173Z,1200
2019-05-05T05:07:07.927Z,1200
2019-05-05T05:08:08.674Z,1250
2019-05-05T05:09:09.570Z,1200
2019-05-05T05:10:10.315Z,1200
2019-05-05T05:11:11.070Z,1200
2019-05-05T05:12:11.838Z,1200
2019-05-05T05:13:14.094Z,1250
2019-05-05T05:14:14.932Z,1200
2019-05-05T05:15:15.697Z,1250
2019-05-05T05:16:16.458Z,1200
2019-05-05T05:17:19.973Z,1200
2019-05-05T05:18:20.718Z,1200
2019-05-05T05:19:21.519Z,1200
2019-05-05T05:20:24.108Z,1200
2019-05-05T05:21:25.394Z,1200
2019-05-05T05:22:26.167Z,1200
2019-05-05T05:23:29.891Z,1200
2019-05-05T05:24:30.737Z,1200
2019-05-05T05:25:31.504Z,1200
2019-05-05T05:26:33.795Z,1200
2019-05-05T05:27:34.566Z,1200
2019-05-05T05:28:35.335Z,1200
2019-05-05T05:29:36.160Z,1250
2019-05-05T05:30:36.917Z,1250
2019-05-05T05:31:37.667Z,1200
2019-05-05T05:32:40.088Z,1200
2019-05-05T05:33:40.898Z,1200
2019-05-05T05:34:43.809Z,1200
2019-05-05T05:35:44.610Z,1200
2019-05-05T05:36:45.329Z,1200
2019-05-05T05:37:46.090Z,1200
2019-05-05T05:38:46.840Z,1200
2019-05-05T05:39:47.665Z,1200
2019-05-05T05:40:48.433Z,1200
2019-05-05T05:41:49.195Z,1200
2019-05-05T05:42:49.929Z,1200
2019-05-05T05:43:50.680Z,1200
2019-05-05T05:44:53.661Z,1200
2019-05-05T05:45:54.429Z,1200
2019-05-05T05:46:55.171Z,1200
2019-05-05T05:47:55.969Z,1200
2019-05-05T05:48:56.704Z,1200
2019-05-05T05:49:57.510Z,1200
2019-05-05T05:50:58.248Z,1200
2019-05-05T05:52:18.144Z,1200
2019-05-05T05:53:20.068Z,1200
2019-05-05T05:54:20.789Z,1200
2019-05-05T05:55:23.591Z,1200
2019-05-05T05:56:25.188Z,1200
2019-05-05T05:57:25.949Z,1200
2019-05-05T05:58:26.669Z,1200
2019-05-05T05:59:27.374Z,1200
2019-05-05T06:00:28.155Z,1200
2019-05-05T06:01:28.898Z,1200
2019-05-05T06:02:29.698Z,1200
2019-05-05T06:03:30.436Z,1200
2019-05-05T06:04:31.181Z,1200
2019-05-05T06:05:33.792Z,1200
2019-05-05T06:06:35.126Z,1200
2019-05-05T06:07:35.900Z,1200
2019-05-05T06:08:36.658Z,1200
2019-05-05T06:09:37.414Z,1200
2019-05-05T06:10:38.202Z,1200
2019-05-05T06:11:38.933Z,1200
2019-05-05T06:12:39.715Z,1200
2019-05-05T06:13:40.476Z,1200
2019-05-05T06:14:41.247Z,1200
2019-05-05T06:15:44.531Z,1250
2019-05-05T06:16:45.324Z,1200
2019-05-05T06:17:46.111Z,1250
2019-05-05T06:18:46.806Z,1200
2019-05-05T06:19:47.553Z,1200
2019-05-05T06:20:48.316Z,1200
2019-05-05T06:21:49.060Z,1200
2019-05-05T06:22:49.826Z,1200
2019-05-05T06:23:50.536Z,1200
2019-05-05T06:24:51.321Z,1250
2019-05-05T06:25:52.132Z,1200
2019-05-05T06:26:55.568Z,1200
2019-05-05T06:27:56.335Z,1200
2019-05-05T06:28:57.062Z,1200
2019-05-05T06:29:57.791Z,1200
2019-05-05T06:30:58.590Z,1200
2019-05-05T06:31:59.289Z,1200
2019-05-05T06:33:00.060Z,1200
2019-05-05T06:34:00.765Z,1200
2019-05-05T06:35:03.845Z,1200
2019-05-05T06:36:04.653Z,1200
2019-05-05T06:37:05.387Z,1200
2019-05-05T06:38:06.155Z,1200
2019-05-05T06:39:06.892Z,1200
2019-05-05T06:40:07.618Z,1200
2019-05-05T06:41:08.402Z,1200
2019-05-05T06:42:09.142Z,1200
2019-05-05T06:43:09.867Z,1200
2019-05-05T06:44:10.610Z,1200
2019-05-05T06:45:11.339Z,1200
2019-05-05T06:46:12.091Z,1200
2019-05-05T06:47:13.728Z,1200
2019-05-05T06:48:14.489Z,1200
2019-05-05T06:49:15.220Z,1200
2019-05-05T06:50:15.982Z,1200
2019-05-05T06:51:16.853Z,1200
2019-05-05T06:52:17.738Z,1200
2019-05-05T06:53:18.495Z,1200
2019-05-05T06:54:19.190Z,1200
2019-05-05T06:55:19.946Z,1200
2019-05-05T06:56:20.775Z,1200
2019-05-05T06:57:21.522Z,1200
2019-05-05T06:58:24.315Z,1200
2019-05-05T06:59:25.108Z,1200
2019-05-05T07:00:25.849Z,1200
2019-05-05T07:01:26.650Z,1200
2019-05-05T07:02:27.380Z,1200
2019-05-05T07:03:28.152Z,1200
2019-05-05T07:04:28.883Z,1200
2019-05-05T07:05:29.625Z,1200
2019-05-05T07:06:30.461Z,1200
2019-05-05T07:07:31.236Z,1200
2019-05-05T07:08:32.064Z,1200
2019-05-05T07:09:33.870Z,1200
2019-05-05T07:10:34.647Z,1200
2019-05-05T07:11:35.446Z,1200
2019-05-05T07:12:36.226Z,1200
2019-05-05T07:13:37.004Z,1200
2019-05-05T07:14:37.736Z,1200
2019-05-05T07:15:38.475Z,1200
2019-05-05T07:16:39.258Z,1200
2019-05-05T07:17:40.007Z,1200
2019-05-05T07:18:40.795Z,1200
2019-05-05T07:19:41.535Z,1200
2019-05-05T07:20:44.308Z,1200
2019-05-05T07:21:45.096Z,1200
2019-05-05T07:23:02.332Z,1200
2019-05-05T07:24:06.071Z,1200
2019-05-05T07:25:06.861Z,1200
2019-05-05T07:26:07.688Z,1200
2019-05-05T07:27:08.501Z,1200
2019-05-05T07:28:09.229Z,1200
2019-05-05T07:29:09.988Z,1200
2019-05-05T07:30:10.746Z,1200
2019-05-05T07:31:11.485Z,1200
2019-05-05T07:32:14.379Z,1200
2019-05-05T07:33:15.155Z,1200
2019-05-05T07:34:15.922Z,1150
2019-05-05T07:35:16.639Z,1150
2019-05-05T07:36:17.385Z,1150
2019-05-05T07:37:18.186Z,1150
2019-05-05T07:38:18.938Z,1150
2019-05-05T07:39:19.725Z,1150
2019-05-05T07:40:20.472Z,1150
2019-05-05T07:41:23.470Z,1150
2019-05-05T07:42:24.626Z,1150
2019-05-05T07:43:25.489Z,1150
2019-05-05T07:44:29.944Z,1150
2019-05-05T07:45:30.655Z,1100
2019-05-05T07:46:31.406Z,1100
2019-05-05T07:47:34.351Z,1100
2019-05-05T07:48:35.134Z,1150
2019-05-05T07:49:35.872Z,1100
2019-05-05T07:50:36.826Z,1100
2019-05-05T07:51:37.869Z,1100
2019-05-05T07:52:38.672Z,1150
2019-05-05T07:53:39.455Z,1100
2019-05-05T07:54:40.190Z,1100
2019-05-05T07:55:40.924Z,1150
2019-05-05T07:56:41.698Z,1100
2019-05-05T07:57:43.733Z,1100
2019-05-05T07:58:44.539Z,1100
2019-05-05T07:59:45.320Z,1100
2019-05-05T08:00:46.083Z,1100
2019-05-05T08:01:47.051Z,1100
2019-05-05T08:02:47.848Z,1100
2019-05-05T08:03:48.574Z,1100
2019-05-05T08:04:49.297Z,1100
2019-05-05T08:05:50.011Z,1100
2019-05-05T08:06:50.761Z,1100
2019-05-05T08:07:51.559Z,1100
2019-05-05T08:08:54.818Z,1100
2019-05-05T08:09:55.577Z,1100
2019-05-05T08:10:56.350Z,1100
2019-05-05T08:11:57.096Z,1100
2019-05-05T08:12:57.914Z,1100
2019-05-05T08:13:58.683Z,1100
2019-05-05T08:14:59.425Z,1100
2019-05-05T08:16:00.442Z,1100
2019-05-05T08:17:01.139Z,1050
2019-05-05T08:18:01.918Z,1050
2019-05-05T08:19:04.074Z,1050
2019-05-05T08:20:04.814Z,1050
2019-05-05T08:21:05.578Z,1050
2019-05-05T08:22:06.381Z,1050
2019-05-05T08:23:08.503Z,1050
2019-05-05T08:24:09.279Z,1050
2019-05-05T08:25:09.978Z,1050
2019-05-05T08:26:10.710Z,1000
2019-05-05T08:27:11.444Z,1050
2019-05-05T08:28:12.228Z,1000
2019-05-05T08:29:15.306Z,1000
2019-05-05T08:30:16.078Z,1000
2019-05-05T08:31:16.811Z,1000
2019-05-05T08:32:17.550Z,1000
2019-05-05T08:33:18.300Z,1000
2019-05-05T08:34:19.080Z,1000
2019-05-05T08:35:19.836Z,950
2019-05-05T08:36:20.618Z,950
2019-05-05T08:37:23.503Z,950
2019-05-05T08:38:24.517Z,950
2019-05-05T08:39:25.269Z,950
2019-05-05T08:40:26.006Z,950
2019-05-05T08:41:26.777Z,950
2019-05-05T08:42:27.554Z,950
2019-05-05T08:43:28.339Z,900
2019-05-05T08:44:29.129Z,900
2019-05-05T08:45:29.853Z,900
2019-05-05T08:46:30.592Z,900
2019-05-05T08:47:31.379Z,900
2019-05-05T08:48:34.322Z,900
2019-05-05T08:49:35.068Z,850
2019-05-05T08:50:35.783Z,850
2019-05-05T08:51:36.533Z,850
2019-05-05T08:52:37.299Z,850
2019-05-05T08:53:48.122Z,850
2019-05-05T08:54:49.271Z,850
2019-05-05T08:55:50.010Z,850
2019-05-05T08:56:50.717Z,800
2019-05-05T08:57:51.537Z,800
2019-05-05T08:58:54.743Z,800
2019-05-05T08:59:55.511Z,800
2019-05-05T09:00:56.243Z,800
2019-05-05T09:01:57.019Z,800
2019-05-05T09:02:57.777Z,750
2019-05-05T09:03:58.581Z,750
2019-05-05T09:04:59.380Z,750
2019-05-05T09:06:00.130Z,750
2019-05-05T09:07:00.885Z,750
2019-05-05T09:08:01.643Z,750
2019-05-05T09:09:04.078Z,700
2019-05-05T09:10:04.882Z,700
2019-05-05T09:11:05.683Z,700
2019-05-05T09:12:06.461Z,700
2019-05-05T09:13:07.235Z,700
2019-05-05T09:14:08.057Z,700
2019-05-05T09:15:08.875Z,650
2019-05-05T09:16:09.623Z,650
2019-05-05T09:17:10.440Z,650
2019-05-05T09:18:11.169Z,650
2019-05-05T09:19:11.980Z,650
2019-05-05T09:20:13.879Z,600
2019-05-05T09:21:14.657Z,600
2019-05-05T09:22:15.455Z,600
2019-05-05T09:23:16.250Z,600
2019-05-05T09:24:17.088Z,600
2019-05-05T09:25:17.836Z,550
2019-05-05T09:26:18.621Z,550
2019-05-05T09:27:19.458Z,550
2019-05-05T09:28:20.231Z,550
2019-05-05T09:29:21.115Z,550
2019-05-05T09:30:21.926Z,500
2019-05-05T09:31:24.150Z,500
2019-05-05T09:32:24.982Z,500
2019-05-05T09:33:25.735Z,500
2019-05-05T09:34:26.604Z,500
2019-05-05T09:35:27.391Z,450
2019-05-05T09:36:28.134Z,450
2019-05-05T09:37:28.930Z,450
2019-05-05T09:38:30.537Z,450
2019-05-05T09:39:31.337Z,450
2019-05-05T09:40:33.653Z,400
2019-05-05T09:41:34.392Z,400
2019-05-05T09:42:35.146Z,400
2019-05-05T09:43:35.888Z,400
2019-05-05T09:44:36.659Z,400
2019-05-05T09:45:37.393Z,400
2019-05-05T09:46:39.867Z,350
2019-05-05T09:47:40.624Z,350
2019-05-05T09:48:41.366Z,350
2019-05-05T09:49:44.755Z,350
2019-05-05T09:50:45.493Z,350
2019-05-05T09:51:46.252Z,350
2019-05-05T09:52:47.068Z,300
2019-05-05T09:53:47.773Z,300
2019-05-05T09:54:48.607Z,300
2019-05-05T09:55:49.351Z,300
2019-05-05T09:56:50.087Z,0
2019-05-05T09:57:54.284Z,0
2019-05-05T09:58:55.034Z,0
2019-05-05T09:59:55.878Z,0
2019-05-05T10:00:56.652Z,0
2019-05-05T10:01:57.405Z,0
2019-05-05T10:02:58.226Z,0
2019-05-05T10:03:58.995Z,0
2019-05-05T10:04:59.810Z,0
2019-05-05T10:06:00.548Z,0
2019-05-05T10:07:01.249Z,0
2019-05-05T10:08:03.783Z,0
2019-05-05T10:09:04.628Z,0
2019-05-05T10:10:05.460Z,0
2019-05-05T10:11:06.187Z,0
2019-05-05T10:12:06.963Z,0
2019-05-05T10:13:07.899Z,0
2019-05-05T10:14:08.661Z,0
2019-05-05T10:15:09.507Z,0
2019-05-05T10:16:10.276Z,0
2019-05-05T10:17:10.985Z,0
2019-05-05T10:18:14.318Z,0
2019-05-05T10:19:15.108Z,0
2019-05-05T10:20:15.957Z,0
2019-05-05T10:21:18.066Z,0
2019-05-05T10:22:18.841Z,0
2019-05-05T10:23:19.635Z,0
2019-05-05T10:24:31.057Z,0
2019-05-05T10:25:34.644Z,0
2019-05-05T10:26:35.444Z,0
2019-05-05T10:27:47.663Z,0
2019-05-05T10:28:48.549Z,0
2019-05-05T10:29:49.305Z,0
2019-05-05T10:30:50.154Z,0
2019-05-05T10:31:50.921Z,0
2019-05-05T10:32:51.697Z,0
2019-05-05T10:33:54.155Z,0
2019-05-05T10:34:54.973Z,0
2019-05-05T10:35:55.805Z,0
2019-05-05T10:36:56.602Z,0
2019-05-05T10:37:57.404Z,0
2019-05-05T10:38:58.223Z,0
2019-05-05T10:39:58.991Z,0
2019-05-05T10:40:59.779Z,0
2019-05-05T10:42:00.542Z,0
2019-05-05T10:43:01.278Z,0
2019-05-05T10:44:03.878Z,0
2019-05-05T10:45:04.672Z,0
2019-05-05T10:46:05.405Z,0
2019-05-05T10:47:06.241Z,0
2019-05-05T10:48:06.989Z,0
2019-05-05T10:49:07.730Z,0
2019-05-05T10:50:08.474Z,0
2019-05-05T10:51:09.234Z,0
2019-05-05T10:52:10.034Z,0
2019-05-05T10:53:10.805Z,0
2019-05-05T10:54:11.542Z,0
2019-05-05T10:55:14.658Z,0
2019-05-05T10:56:15.513Z,0
2019-05-05T10:57:18.642Z,0
2019-05-05T10:58:19.385Z,0
2019-05-05T10:59:20.122Z,0
2019-05-05T11:00:20.854Z,0
2019-05-05T11:01:23.716Z,0
2019-05-05T11:02:24.531Z,0
2019-05-05T11:03:25.290Z,0
2019-05-05T11:04:26.035Z,0
2019-05-05T11:05:26.735Z,0
2019-05-05T11:06:27.452Z,0
2019-05-05T11:07:28.261Z,0
2019-05-05T11:08:31.029Z,0
2019-05-05T11:09:33.925Z,0
2019-05-05T11:10:34.711Z,0
2019-05-05T11:11:35.502Z,0
2019-05-05T11:12:36.320Z,0
2019-05-05T11:13:37.113Z,0
2019-05-05T11:14:37.816Z,0
2019-05-05T11:15:38.567Z,0
2019-05-05T11:16:39.364Z,0
2019-05-05T11:17:40.212Z,0
2019-05-05T11:18:40.953Z,0
2019-05-05T11:19:41.686Z,0
2019-05-05T11:20:45.191Z,0
2019-05-05T11:21:45.994Z,0
2019-05-05T11:22:46.777Z,0
2019-05-05T11:23:47.543Z,0
2019-05-05T11:25:00.922Z,0
2019-05-05T11:26:02.169Z,0
2019-05-05T11:27:04.672Z,0
2019-05-05T11:28:05.482Z,0
2019-05-05T11:29:06.233Z,0
2019-05-05T11:30:06.993Z,0
2019-05-05T11:31:07.758Z,0
2019-05-05T11:32:08.624Z,0
2019-05-05T11:33:09.383Z,0
2019-05-05T11:34:10.144Z,0
2019-05-05T11:35:10.901Z,0
2019-05-05T11:36:13.758Z,0
2019-05-05T11:37:14.562Z,0
2019-05-05T11:38:15.391Z,0
2019-05-05T11:39:16.144Z,0
2019-05-05T11:40:16.912Z,0
2019-05-05T11:41:17.692Z,0
2019-05-05T11:42:18.521Z,0
2019-05-05T11:43:19.366Z,0
2019-05-05T11:44:20.102Z,0
2019-05-05T11:45:20.897Z,0
2019-05-05T11:46:21.677Z,0
2019-05-05T11:47:24.626Z,0
2019-05-05T11:48:25.441Z,0
2019-05-05T11:49:26.219Z,0
2019-05-05T11:50:26.988Z,0
2019-05-05T11:51:27.757Z,0
2019-05-05T11:52:28.528Z,0
2019-05-05T11:53:29.252Z,0
2019-05-05T11:54:29.984Z,0
2019-05-05T11:55:30.764Z,0
2019-05-05T11:56:31.472Z,0
2019-05-05T11:57:32.293Z,0
2019-05-05T11:58:34.296Z,0
2019-05-05T11:59:35.081Z,0
2019-05-05T12:00:35.888Z,0
2019-05-05T12:01:36.633Z,0
2019-05-05T12:02:37.445Z,0
2019-05-05T12:03:38.237Z,0
2019-05-05T12:04:38.987Z,0
2019-05-05T12:05:39.801Z,0
2019-05-05T12:06:40.568Z,0
2019-05-05T12:07:43.119Z,0
2019-05-05T12:08:46.120Z,0
2019-05-05T12:09:46.908Z,0
2019-05-05T12:10:47.703Z,0
2019-05-05T12:11:48.483Z,0
2019-05-05T12:12:49.310Z,0
2019-05-05T12:13:50.121Z,0
2019-05-05T12:14:50.934Z,0
2019-05-05T12:15:53.929Z,0
2019-05-05T12:16:54.691Z,0
2019-05-05T12:17:55.484Z,0
2019-05-05T12:18:56.251Z,0
2019-05-05T12:19:56.973Z,0
2019-05-05T12:20:57.709Z,0
2019-05-05T12:21:58.470Z,0
2019-05-05T12:22:59.297Z,0
2019-05-05T12:24:00.125Z,0
2019-05-05T12:25:00.936Z,0
2019-05-05T12:26:01.737Z,0
2019-05-05T12:27:03.923Z,0
2019-05-05T12:28:04.762Z,0
2019-05-05T12:29:05.618Z,0
2019-05-05T12:30:06.332Z,0
2019-05-05T12:31:07.127Z,0
2019-05-05T12:32:07.870Z,0
2019-05-05T12:33:08.640Z,0
2019-05-05T12:34:09.398Z,0
2019-05-05T12:35:10.112Z,0
2019-05-05T12:36:10.909Z,0
2019-05-05T12:37:11.640Z,0
2019-05-05T12:38:12.425Z,0
2019-05-05T12:39:14.447Z,0
2019-05-05T12:40:15.175Z,0
2019-05-05T12:41:15.940Z,0
2019-05-05T12:42:16.645Z,0
2019-05-05T12:43:17.370Z,0
2019-05-05T12:44:18.220Z,0
2019-05-05T12:45:19.029Z,0
2019-05-05T12:46:19.762Z,0
2019-05-05T12:47:20.499Z,0
2019-05-05T12:48:21.327Z,0
2019-05-05T12:49:25.452Z,0
2019-05-05T12:50:26.289Z,0
2019-05-05T12:51:27.132Z,0
2019-05-05T12:52:27.903Z,0
2019-05-05T12:53:28.689Z,0
2019-05-05T12:54:29.509Z,0
2019-05-05T12:55:41.864Z,0
2019-05-05T12:56:45.124Z,0
2019-05-05T12:57:45.856Z,0
2019-05-05T12:58:46.643Z,0
2019-05-05T12:59:47.427Z,0
2019-05-05T13:00:48.210Z,0
2019-05-05T13:01:48.963Z,0
2019-05-05T13:02:49.743Z,0
2019-05-05T13:03:50.541Z,0
2019-05-05T13:04:53.630Z,0
2019-05-05T13:05:54.437Z,0
2019-05-05T13:06:55.193Z,0
2019-05-05T13:07:55.931Z,0
2019-05-05T13:08:56.757Z,0
2019-05-05T13:09:57.570Z,0
2019-05-05T13:10:58.366Z,0
2019-05-05T13:11:59.115Z,0
2019-05-05T13:12:59.865Z,0
2019-05-05T13:14:00.717Z,0
2019-05-05T13:15:03.871Z,0
2019-05-05T13:16:04.951Z,0
2019-05-05T13:17:05.693Z,0
2019-05-05T13:18:06.439Z,0
2019-05-05T13:19:07.228Z,0
2019-05-05T13:20:07.988Z,0
2019-05-05T13:21:08.751Z,0
2019-05-05T13:22:09.484Z,0
2019-05-05T13:23:10.214Z,0
2019-05-05T13:24:10.980Z,0
2019-05-05T13:25:13.965Z,0
2019-05-05T13:26:14.736Z,0
2019-05-05T13:27:19.850Z,0
2019-05-05T13:28:20.645Z,0
2019-05-05T13:29:21.455Z,0
2019-05-05T13:30:23.814Z,0
2019-05-05T13:31:24.623Z,0
2019-05-05T13:32:25.323Z,0
2019-05-05T13:33:26.028Z,0
2019-05-05T13:34:26.802Z,0
2019-05-05T13:35:27.569Z,0
2019-05-05T13:36:28.346Z,0
2019-05-05T13:37:29.096Z,0
2019-05-05T13:38:29.836Z,0
2019-05-05T13:39:30.807Z,0
2019-05-05T13:40:31.619Z,0
2019-05-05T13:41:34.197Z,0
2019-05-05T13:42:34.958Z,0
2019-05-05T13:43:35.743Z,0
2019-05-05T13:44:36.984Z,0
2019-05-05T13:45:37.822Z,0
2019-05-05T13:46:38.633Z,0
2019-05-05T13:47:39.421Z,0
2019-05-05T13:48:40.182Z,0
2019-05-05T13:49:41.004Z,0
2019-05-05T13:50:41.892Z,0
2019-05-05T13:51:44.924Z,0
2019-05-05T13:52:45.768Z,0
2019-05-05T13:53:46.543Z,0
2019-05-05T13:54:47.327Z,0
2019-05-05T13:55:48.118Z,0
2019-05-05T13:56:48.924Z,0
2019-05-05T13:57:49.652Z,0
2019-05-05T13:58:50.404Z,0
2019-05-05T13:59:51.233Z,0
2019-05-05T14:00:52.046Z,0
2019-05-05T14:01:54.147Z,0